createdAt,value
2023-02-03T00:00:32.271Z,26.70
2023-02-03T00:03:02.106Z,28.50
2023-02-03T00:05:30.868Z,28.70
2023-02-03T00:07:59.787Z,30.60
2023-02-03T00:10:29.107Z,30.00
2023-02-03T00:12:58.470Z,31.60
2023-02-03T00:15:27.522Z,32.10
2023-02-03T00:17:56.249Z,28.50
2023-02-03T00:20:26.337Z,28.10
2023-02-03T00:22:55.435Z,28.10
2023-02-03T00:25:23.809Z,28.90
2023-02-03T00:27:52.726Z,26.60
2023-02-03T00:30:21.355Z,25.20
2023-02-03T00:32:51.322Z,25.80
2023-02-03T00:35:20.227Z,31.10
2023-02-03T00:37:55.765Z,29.40
2023-02-03T00:40:26.767Z,29.10
2023-02-03T00:43:00.103Z,29.70
2023-02-03T00:45:28.864Z,31.00
2023-02-03T00:47:58.896Z,27.20
2023-02-03T00:50:27.783Z,28.30
2023-02-03T00:52:58.172Z,29.20
2023-02-03T00:55:27.818Z,31.30
2023-02-03T00:57:56.491Z,30.00
2023-02-03T01:00:25.292Z,30.50
2023-02-03T01:02:54.724Z,28.00
2023-02-03T04:20:32.411Z,25.10
2023-02-03T04:23:01.325Z,24.80
2023-02-03T04:25:29.907Z,24.10
2023-02-03T04:27:58.617Z,27.20
2023-02-03T04:30:27.410Z,25.10
2023-02-03T04:32:56.698Z,34.90
2023-02-03T04:35:25.555Z,47.10
2023-02-03T04:37:54.417Z,41.70
2023-02-03T04:40:22.829Z,34.00
2023-02-03T04:42:52.320Z,29.80
2023-02-03T04:45:21.007Z,29.40
2023-02-03T04:47:54.470Z,28.70
2023-02-03T04:50:23.483Z,26.80
2023-02-03T04:52:52.499Z,28.10
2023-02-03T04:55:21.018Z,33.50
2023-02-03T04:57:49.806Z,32.60
2023-02-03T05:00:18.917Z,33.90
2023-02-03T05:02:47.706Z,32.40
2023-02-03T05:05:17.355Z,33.40
2023-02-03T05:07:48.388Z,33.30
2023-02-03T05:10:18.023Z,34.50
2023-02-03T05:12:47.446Z,36.30
2023-02-03T05:15:20.783Z,34.30
2023-02-03T05:17:57.248Z,35.30
2023-02-03T05:20:27.165Z,36.30
2023-02-03T05:22:56.014Z,33.10
2023-02-03T05:25:24.528Z,28.50
2023-02-03T05:27:54.193Z,27.60
2023-02-03T05:30:22.832Z,28.10
2023-02-03T05:32:53.262Z,28.40
2023-02-03T05:35:21.677Z,29.80
2023-02-03T05:37:50.266Z,36.10
2023-02-03T05:40:37.298Z,38.80
2023-02-03T05:43:06.112Z,39.70
2023-02-03T05:45:35.157Z,37.10
2023-02-03T05:48:04.047Z,37.00
2023-02-03T05:50:38.169Z,33.20
2023-02-03T05:53:13.027Z,32.30
2023-02-03T05:55:41.596Z,28.60
2023-02-03T05:58:09.831Z,28.60
2023-02-03T06:00:41.599Z,28.00
2023-02-03T06:03:11.014Z,27.90
2023-02-03T06:05:41.378Z,25.30
2023-02-03T06:08:09.912Z,29.40
2023-02-03T06:10:38.964Z,28.60
2023-02-03T06:13:13.743Z,26.50
2023-02-03T06:15:42.364Z,29.30
2023-02-03T06:18:15.733Z,25.00
2023-02-03T06:20:45.060Z,28.10
2023-02-03T06:23:13.619Z,29.90
2023-02-03T06:25:44.678Z,28.70
2023-02-03T06:28:14.206Z,28.40
2023-02-03T06:30:44.052Z,29.70
2023-02-03T06:33:12.851Z,30.60
2023-02-03T06:35:41.084Z,27.30
2023-02-03T06:38:09.814Z,31.10
2023-02-03T06:40:39.528Z,31.70
2023-02-03T06:43:08.066Z,30.50
2023-02-03T06:45:38.755Z,30.30
2023-02-03T06:48:07.876Z,30.10
2023-02-03T06:50:37.034Z,32.30
2023-02-03T06:53:05.902Z,31.60
2023-02-03T06:55:34.454Z,33.90
2023-02-03T06:58:02.815Z,31.00
2023-02-03T07:00:36.603Z,28.60
2023-02-03T07:03:05.971Z,31.20
2023-02-03T07:05:36.996Z,29.40
2023-02-03T07:08:06.618Z,32.80
2023-02-03T07:10:34.964Z,32.80
2023-02-03T07:13:05.866Z,30.10
2023-02-03T07:15:38.029Z,28.60
2023-02-03T07:18:06.396Z,30.80
2023-02-03T07:20:36.075Z,32.50
2023-02-03T07:23:05.076Z,31.60
2023-02-03T07:25:34.206Z,31.80
2023-02-03T07:28:03.768Z,43.50
2023-02-03T07:30:32.640Z,40.20
2023-02-03T07:33:02.541Z,31.00
2023-02-03T07:35:30.859Z,28.80
2023-02-03T07:37:59.138Z,27.60
2023-02-03T07:40:27.685Z,26.50
2023-02-03T07:42:56.169Z,27.00
2023-02-03T07:45:27.619Z,26.10
2023-02-03T07:47:56.441Z,23.40
2023-02-03T07:50:25.376Z,25.90
2023-02-03T07:52:53.783Z,25.10
2023-02-03T07:55:22.955Z,20.60
2023-02-03T07:57:53.110Z,20.00
2023-02-03T08:00:22.251Z,18.90
2023-02-03T08:02:50.930Z,18.50
2023-02-03T08:05:19.271Z,22.70
2023-02-03T08:07:47.695Z,23.70
2023-02-03T08:10:17.991Z,24.10
2023-02-03T08:12:47.228Z,25.50
2023-02-03T08:15:17.431Z,21.20
2023-02-03T08:17:46.545Z,21.80
2023-02-03T08:20:16.722Z,21.30
2023-02-03T08:22:45.571Z,21.40
2023-02-03T08:25:13.819Z,19.60
2023-02-03T08:27:42.301Z,19.90
2023-02-03T08:30:13.351Z,20.20
2023-02-03T08:32:41.748Z,19.90
2023-02-03T08:35:10.535Z,21.80
2023-02-03T08:37:38.867Z,19.40
2023-02-03T08:40:07.585Z,18.20
2023-02-03T08:42:36.951Z,20.30
2023-02-03T08:45:05.740Z,18.40
2023-02-03T08:47:34.273Z,17.40
2023-02-03T08:50:04.522Z,14.30
2023-02-03T08:52:33.000Z,13.50
2023-02-03T08:55:01.225Z,11.20
2023-02-03T08:57:36.283Z,15.00
2023-02-03T09:00:05.537Z,16.60
2023-02-03T09:02:33.871Z,15.00
2023-02-03T09:05:02.329Z,13.80
2023-02-03T09:07:31.936Z,16.50
2023-02-03T09:10:00.600Z,15.40
2023-02-03T09:12:29.069Z,14.30
2023-02-03T09:14:57.383Z,12.20
2023-02-03T09:17:25.879Z,9.60
2023-02-03T09:19:54.247Z,10.60
2023-02-03T09:22:22.578Z,11.30
2023-02-03T09:24:53.664Z,10.80
2023-02-03T09:27:22.138Z,12.30
2023-02-03T09:29:50.588Z,12.60
2023-02-03T09:32:19.367Z,14.30
2023-02-03T09:34:47.631Z,11.20
2023-02-03T09:37:15.929Z,9.60
2023-02-03T09:39:44.274Z,10.30
2023-02-03T09:42:54.358Z,9.40
2023-02-03T09:45:27.030Z,9.40
2023-02-03T09:48:00.965Z,12.30
2023-02-03T09:50:31.279Z,12.30
2023-02-03T09:53:00.104Z,15.10
2023-02-03T09:55:31.028Z,12.80
2023-02-03T09:58:28.551Z,12.60
2023-02-03T10:01:05.769Z,11.90
2023-02-03T10:03:42.023Z,11.50
2023-02-03T10:06:13.268Z,12.00
2023-02-03T12:45:06.094Z,10.20
2023-02-03T12:47:40.204Z,9.10
2023-02-03T12:50:27.880Z,21.10
2023-02-03T12:52:57.696Z,14.90
2023-02-03T12:55:39.354Z,13.30
2023-02-03T12:58:12.213Z,9.90
2023-02-03T13:01:05.543Z,9.70
2023-02-03T13:06:12.891Z,12.30
2023-02-03T13:11:49.205Z,20.90
2023-02-03T13:14:32.888Z,22.20
2023-02-03T13:17:11.753Z,18.80
2023-02-03T13:20:14.446Z,20.00
2023-02-03T13:22:42.972Z,11.70
2023-02-03T13:25:36.408Z,15.60
2023-02-03T13:28:40.140Z,15.40
2023-02-03T13:31:46.098Z,16.70
2023-02-03T13:34:39.346Z,18.90
2023-02-03T13:37:17.145Z,18.50
2023-02-03T13:40:03.835Z,16.30
2023-02-03T13:42:33.646Z,16.30
2023-02-03T13:45:49.876Z,17.20
2023-02-03T13:48:24.456Z,17.70
2023-02-03T13:51:03.746Z,17.20
2023-02-03T13:53:35.702Z,13.70
2023-02-03T13:56:09.752Z,12.00
2023-02-03T13:58:40.228Z,12.30
2023-02-03T14:01:29.759Z,8.70
2023-02-03T14:03:58.311Z,10.20
2023-02-03T14:06:39.879Z,11.30
2023-02-03T14:09:30.359Z,11.30
2023-02-03T14:12:19.744Z,7.70
2023-02-03T14:14:50.945Z,8.30
2023-02-03T14:17:34.564Z,8.10
2023-02-03T14:20:04.739Z,9.00
2023-02-03T14:22:35.693Z,7.30
2023-02-03T14:25:05.958Z,9.50
2023-02-03T14:27:34.366Z,9.80
2023-02-03T14:30:22.987Z,9.00
2023-02-03T14:32:58.897Z,9.70
2023-02-03T14:35:36.352Z,8.00
2023-02-03T14:38:12.136Z,6.20
2023-02-03T14:41:05.802Z,8.60
2023-02-03T14:44:04.842Z,8.80
2023-02-03T14:47:38.276Z,6.80
2023-02-03T14:50:25.294Z,7.00
2023-02-03T14:53:15.306Z,8.90
2023-02-03T14:56:24.541Z,8.60
2023-02-03T14:59:03.058Z,8.70
2023-02-03T15:01:37.961Z,7.50
2023-02-03T15:04:12.407Z,6.60
2023-02-03T15:06:48.490Z,8.60
2023-02-03T15:09:23.615Z,7.00
2023-02-03T15:11:52.087Z,10.10
2023-02-03T15:14:25.384Z,8.90
2023-02-03T15:17:13.689Z,8.70
2023-02-03T15:19:42.744Z,9.50
2023-02-03T15:22:25.996Z,9.60
2023-02-03T15:24:57.317Z,9.40
2023-02-03T15:27:30.046Z,11.10
2023-02-03T15:32:41.457Z,11.50
2023-02-03T15:35:18.478Z,12.20
2023-02-03T15:37:50.673Z,18.60
2023-02-03T15:40:20.962Z,14.90
2023-02-03T15:42:59.717Z,14.10
2023-02-03T15:45:29.364Z,12.90
2023-02-03T15:48:04.368Z,12.50
2023-02-03T15:50:43.232Z,10.00
2023-02-03T15:53:46.679Z,9.70
2023-02-03T15:56:35.825Z,9.00
2023-02-03T15:59:05.127Z,8.00
2023-02-03T16:01:33.660Z,12.70
2023-02-03T16:04:02.838Z,11.10
2023-02-03T16:06:36.160Z,8.20
2023-02-03T16:09:26.900Z,8.50
2023-02-03T16:12:34.691Z,10.50
2023-02-03T16:15:03.288Z,11.50
2023-02-03T16:17:36.817Z,19.80
2023-02-03T16:20:13.025Z,19.10
2023-02-03T16:23:00.359Z,18.00
2023-02-03T16:25:31.681Z,15.70
2023-02-03T16:28:19.688Z,16.60
2023-02-03T16:31:20.907Z,16.80
2023-02-03T16:34:09.198Z,14.90
2023-02-03T16:37:01.319Z,12.70
2023-02-03T16:39:49.038Z,13.00
2023-02-03T16:42:38.330Z,12.50
2023-02-03T16:45:33.991Z,13.40
2023-02-03T16:48:22.395Z,12.90
2023-02-03T16:50:54.274Z,16.40
2023-02-03T16:53:30.631Z,15.20
2023-02-03T16:56:01.613Z,15.90
2023-02-03T16:58:31.077Z,18.60
2023-02-03T17:01:02.354Z,15.20
2023-02-03T17:03:33.224Z,14.90
2023-02-03T17:06:07.553Z,15.60
2023-02-03T17:08:36.371Z,18.50
2023-02-03T17:11:15.826Z,17.80
2023-02-03T17:13:44.527Z,15.20
2023-02-03T17:16:23.537Z,14.50
2023-02-03T17:18:52.279Z,14.80
2023-02-03T17:21:23.019Z,18.30
2023-02-03T17:23:51.870Z,20.00
2023-02-03T17:26:20.141Z,13.30
2023-02-03T17:28:48.977Z,14.60
2023-02-03T17:31:18.831Z,15.50
2023-02-03T17:33:51.115Z,13.80
2023-02-03T17:36:20.603Z,13.30
2023-02-03T17:55:32.876Z,12.90
2023-02-03T17:58:02.059Z,13.10
2023-02-03T18:00:32.047Z,15.40
2023-02-03T18:07:04.716Z,15.60
2023-02-03T18:09:33.044Z,14.90
2023-02-03T18:12:03.796Z,16.70
2023-02-03T18:14:32.911Z,19.70
2023-02-03T18:17:01.189Z,16.90
2023-02-03T18:19:33.565Z,15.90
2023-02-03T18:22:01.797Z,14.00
2023-02-03T18:24:30.752Z,21.80
2023-02-03T18:27:00.983Z,21.00
2023-02-03T18:29:30.370Z,25.30
2023-02-03T18:32:02.026Z,38.70
2023-02-03T18:34:30.685Z,32.20
2023-02-03T18:36:59.134Z,25.80
2023-02-03T18:39:27.464Z,21.90
2023-02-03T18:41:56.034Z,19.40
2023-02-03T18:44:27.125Z,16.50
2023-02-03T18:46:55.380Z,18.10
2023-02-03T18:49:27.572Z,27.20
2023-02-03T18:51:55.789Z,23.60
2023-02-03T18:54:24.280Z,22.30
2023-02-03T18:56:52.958Z,24.80
2023-02-03T18:59:21.338Z,21.50
2023-02-03T19:01:49.527Z,20.50
2023-02-03T19:04:17.829Z,18.80
2023-02-03T19:06:47.767Z,18.20
2023-02-03T19:09:18.161Z,17.70
2023-02-03T19:11:46.738Z,22.30
2023-02-03T19:14:18.249Z,23.80
2023-02-03T19:16:48.098Z,18.70
2023-02-03T19:19:16.387Z,14.00
2023-02-03T19:21:48.838Z,15.30
2023-02-03T19:24:17.741Z,16.00
2023-02-03T19:26:46.222Z,16.90
2023-02-03T19:29:14.893Z,19.20
2023-02-03T19:31:43.226Z,19.20
2023-02-03T19:34:18.823Z,13.10
2023-02-03T19:36:48.725Z,11.70
2023-02-03T19:39:18.841Z,12.60
2023-02-03T19:41:48.076Z,13.00
2023-02-03T19:44:16.697Z,11.20
2023-02-03T19:46:46.101Z,13.00
2023-02-03T19:49:15.450Z,14.90
2023-02-03T19:51:46.811Z,15.60
2023-02-03T19:54:15.890Z,14.20
2023-02-03T19:56:45.614Z,13.70
2023-02-03T19:59:16.254Z,12.50
2023-02-03T20:01:44.587Z,13.40
2023-02-03T20:04:15.615Z,11.50
2023-02-03T20:06:44.203Z,10.70
2023-02-03T20:09:12.562Z,10.40
2023-02-03T20:15:21.796Z,9.80
2023-02-03T20:17:51.950Z,11.00
2023-02-03T20:20:20.961Z,11.20
2023-02-03T20:22:49.670Z,11.70
2023-02-03T20:29:01.252Z,11.30
2023-02-03T20:31:30.230Z,12.90
2023-02-03T20:33:59.215Z,12.70
2023-02-03T20:36:31.349Z,17.10
2023-02-03T20:38:59.816Z,17.60
2023-02-03T20:41:29.330Z,14.70
2023-02-03T20:43:58.860Z,12.50
2023-02-03T20:46:30.874Z,17.00
2023-02-03T20:49:37.749Z,16.40
2023-02-03T20:52:58.851Z,13.80
2023-02-03T20:55:27.075Z,10.80
2023-02-03T20:57:56.985Z,15.60
2023-02-03T21:00:28.203Z,14.30
2023-02-03T21:03:15.500Z,11.90
2023-02-03T22:51:00.912Z,13.60
2023-02-03T22:53:27.826Z,15.80
2023-02-03T22:55:54.780Z,16.30
2023-02-03T22:58:21.635Z,14.70
2023-02-03T23:00:48.919Z,13.30
2023-02-03T23:03:15.918Z,11.50
2023-02-03T23:05:42.707Z,13.80
2023-02-03T23:08:09.794Z,12.70
2023-02-03T23:10:36.629Z,18.00
2023-02-03T23:13:06.903Z,12.30
2023-02-03T23:15:35.315Z,10.80
2023-02-03T23:18:02.845Z,10.50
2023-02-03T23:20:33.425Z,10.60
2023-02-03T23:23:00.750Z,14.20
2023-02-03T23:25:27.993Z,9.90
2023-02-03T23:27:55.125Z,11.20
2023-02-03T23:30:22.055Z,10.30
2023-02-03T23:32:49.025Z,10.60
2023-02-03T23:35:35.794Z,12.20
2023-02-03T23:38:02.854Z,14.50
2023-02-03T23:40:30.376Z,15.40
2023-02-03T23:42:57.809Z,14.20
2023-02-03T23:45:24.613Z,15.20
2023-02-03T23:47:51.485Z,15.50
2023-02-03T23:50:19.541Z,17.20
2023-02-03T23:52:47.308Z,18.20
2023-02-03T23:55:15.624Z,16.90
2023-02-03T23:57:43.214Z,20.20
